sensor_id;sensor_type;location;lat;lon;timestamp;temperature;humidity
31967;DHT22;18496;52.042;6.812;2022-11-20T00:03:17;1.70;99.90
31967;DHT22;18496;52.042;6.812;2022-11-20T00:05:21;1.60;99.90
31967;DHT22;18496;52.042;6.812;2022-11-20T00:07:25;1.60;99.90
31967;DHT22;18496;52.042;6.812;2022-11-20T00:09:28;1.60;99.90
31967;DHT22;18496;52.042;6.812;2022-11-20T00:11:32;1.60;99.90
31967;DHT22;18496;52.042;6.812;2022-11-20T00:13:36;1.50;99.90
31967;DHT22;18496;52.042;6.812;2022-11-20T00:15:39;1.50;99.90
31967;DHT22;18496;52.042;6.812;2022-11-20T00:17:43;1.50;99.90
31967;DHT22;18496;52.042;6.812;2022-11-20T00:19:47;1.40;99.90
31967;DHT22;18496;52.042;6.812;2022-11-20T00:21:50;1.40;99.90
31967;DHT22;18496;52.042;6.812;2022-11-20T00:23:57;1.40;99.90
31967;DHT22;18496;52.042;6.812;2022-11-20T00:26:06;1.40;99.90
31967;DHT22;18496;52.042;6.812;2022-11-20T00:28:10;1.40;99.90
31967;DHT22;18496;52.042;6.812;2022-11-20T00:30:13;1.40;99.90
31967;DHT22;18496;52.042;6.812;2022-11-20T00:32:17;1.40;99.90
31967;DHT22;18496;52.042;6.812;2022-11-20T00:34:21;1.30;99.90
31967;DHT22;18496;52.042;6.812;2022-11-20T00:36:27;1.40;99.90
31967;DHT22;18496;52.042;6.812;2022-11-20T00:38:31;1.40;99.90
31967;DHT22;18496;52.042;6.812;2022-11-20T00:40:35;1.40;99.90
31967;DHT22;18496;52.042;6.812;2022-11-20T00:42:39;1.40;99.90
31967;DHT22;18496;52.042;6.812;2022-11-20T00:44:42;1.40;99.90
31967;DHT22;18496;52.042;6.812;2022-11-20T00:46:46;1.30;99.90
31967;DHT22;18496;52.042;6.812;2022-11-20T00:48:50;1.30;99.90
31967;DHT22;18496;52.042;6.812;2022-11-20T00:50:53;1.30;99.90
31967;DHT22;18496;52.042;6.812;2022-11-20T00:52:57;1.20;99.90
31967;DHT22;18496;52.042;6.812;2022-11-20T00:55:00;1.20;99.90
31967;DHT22;18496;52.042;6.812;2022-11-20T00:57:04;1.20;99.90
31967;DHT22;18496;52.042;6.812;2022-11-20T00:59:09;1.10;99.90
31967;DHT22;18496;52.042;6.812;2022-11-20T01:01:17;1.20;99.90
31967;DHT22;18496;52.042;6.812;2022-11-20T01:03:21;1.20;99.90
31967;DHT22;18496;52.042;6.812;2022-11-20T01:05:25;1.20;99.90
31967;DHT22;18496;52.042;6.812;2022-11-20T01:07:28;1.20;99.90
31967;DHT22;18496;52.042;6.812;2022-11-20T01:09:32;1.20;99.90
31967;DHT22;18496;52.042;6.812;2022-11-20T01:11:38;1.10;99.90
31967;DHT22;18496;52.042;6.812;2022-11-20T01:13:43;1.10;99.90
31967;DHT22;18496;52.042;6.812;2022-11-20T01:15:48;1.20;99.90
31967;DHT22;18496;52.042;6.812;2022-11-20T01:17:52;1.20;99.90
31967;DHT22;18496;52.042;6.812;2022-11-20T01:19:55;1.20;99.90
31967;DHT22;18496;52.042;6.812;2022-11-20T01:21:59;1.20;99.90
31967;DHT22;18496;52.042;6.812;2022-11-20T01:24:04;1.10;99.90
31967;DHT22;18496;52.042;6.812;2022-11-20T01:26:14;1.10;99.90
31967;DHT22;18496;52.042;6.812;2022-11-20T01:28:18;1.10;99.90
31967;DHT22;18496;52.042;6.812;2022-11-20T01:30:21;1.10;99.90
31967;DHT22;18496;52.042;6.812;2022-11-20T01:32:25;1.00;99.90
31967;DHT22;18496;52.042;6.812;2022-11-20T01:34:29;1.00;99.90
31967;DHT22;18496;52.042;6.812;2022-11-20T01:36:34;1.00;99.90
31967;DHT22;18496;52.042;6.812;2022-11-20T01:38:39;1.00;99.90
31967;DHT22;18496;52.042;6.812;2022-11-20T01:40:42;0.90;99.90
31967;DHT22;18496;52.042;6.812;2022-11-20T01:43:06;0.90;99.90
31967;DHT22;18496;52.042;6.812;2022-11-20T01:45:52;0.90;99.90
31967;DHT22;18496;52.042;6.812;2022-11-20T01:47:59;0.90;99.90
31967;DHT22;18496;52.042;6.812;2022-11-20T01:50:09;0.80;99.90
31967;DHT22;18496;52.042;6.812;2022-11-20T01:52:24;0.80;99.90
31967;DHT22;18496;52.042;6.812;2022-11-20T01:54:38;0.80;99.90
31967;DHT22;18496;52.042;6.812;2022-11-20T01:56:44;0.80;99.90
31967;DHT22;18496;52.042;6.812;2022-11-20T01:58:54;0.80;99.90
31967;DHT22;18496;52.042;6.812;2022-11-20T02:00:59;0.80;99.90
31967;DHT22;18496;52.042;6.812;2022-11-20T02:03:11;0.80;99.90
31967;DHT22;18496;52.042;6.812;2022-11-20T02:07:35;0.70;99.90
31967;DHT22;18496;52.042;6.812;2022-11-20T02:09:39;0.70;99.90
31967;DHT22;18496;52.042;6.812;2022-11-20T02:11:42;0.70;99.90
31967;DHT22;18496;52.042;6.812;2022-11-20T02:13:47;0.70;99.90
31967;DHT22;18496;52.042;6.812;2022-11-20T02:15:51;0.70;99.90
31967;DHT22;18496;52.042;6.812;2022-11-20T02:17:55;0.70;99.90
31967;DHT22;18496;52.042;6.812;2022-11-20T02:19:58;0.70;99.90
31967;DHT22;18496;52.042;6.812;2022-11-20T02:22:19;0.70;99.90
31967;DHT22;18496;52.042;6.812;2022-11-20T02:24:24;0.70;99.90
31967;DHT22;18496;52.042;6.812;2022-11-20T02:26:30;0.70;99.90
31967;DHT22;18496;52.042;6.812;2022-11-20T02:28:34;0.70;99.90
31967;DHT22;18496;52.042;6.812;2022-11-20T02:30:38;0.60;99.90
31967;DHT22;18496;52.042;6.812;2022-11-20T02:32:42;0.70;99.90
31967;DHT22;18496;52.042;6.812;2022-11-20T02:34:45;0.70;99.90
31967;DHT22;18496;52.042;6.812;2022-11-20T02:36:50;0.60;99.90
31967;DHT22;18496;52.042;6.812;2022-11-20T02:38:55;0.60;99.90
31967;DHT22;18496;52.042;6.812;2022-11-20T02:40:59;0.60;99.90
31967;DHT22;18496;52.042;6.812;2022-11-20T02:43:02;0.50;99.90
31967;DHT22;18496;52.042;6.812;2022-11-20T02:45:07;0.50;99.90
31967;DHT22;18496;52.042;6.812;2022-11-20T02:47:10;0.50;99.90
31967;DHT22;18496;52.042;6.812;2022-11-20T02:49:14;0.40;99.90
31967;DHT22;18496;52.042;6.812;2022-11-20T02:51:18;0.40;99.90
31967;DHT22;18496;52.042;6.812;2022-11-20T02:53:21;0.40;99.90
31967;DHT22;18496;52.042;6.812;2022-11-20T02:55:25;0.40;99.90
31967;DHT22;18496;52.042;6.812;2022-11-20T02:57:29;0.40;99.90
31967;DHT22;18496;52.042;6.812;2022-11-20T02:59:32;0.40;99.90
31967;DHT22;18496;52.042;6.812;2022-11-20T03:01:36;0.40;99.90
31967;DHT22;18496;52.042;6.812;2022-11-20T03:03:39;0.40;99.90
31967;DHT22;18496;52.042;6.812;2022-11-20T03:05:43;0.40;99.90
31967;DHT22;18496;52.042;6.812;2022-11-20T03:07:47;0.30;99.90
31967;DHT22;18496;52.042;6.812;2022-11-20T03:09:50;0.30;99.90
31967;DHT22;18496;52.042;6.812;2022-11-20T03:11:54;0.30;99.90
31967;DHT22;18496;52.042;6.812;2022-11-20T03:14:02;0.30;99.90
31967;DHT22;18496;52.042;6.812;2022-11-20T03:16:08;0.40;99.90
31967;DHT22;18496;52.042;6.812;2022-11-20T03:18:11;0.40;99.90
31967;DHT22;18496;52.042;6.812;2022-11-20T03:20:17;0.30;99.90
31967;DHT22;18496;52.042;6.812;2022-11-20T03:22:20;0.30;99.90
31967;DHT22;18496;52.042;6.812;2022-11-20T03:24:24;0.30;99.90
31967;DHT22;18496;52.042;6.812;2022-11-20T03:26:28;0.30;99.90
31967;DHT22;18496;52.042;6.812;2022-11-20T03:28:31;0.20;99.90
31967;DHT22;18496;52.042;6.812;2022-11-20T03:30:35;0.20;99.90
31967;DHT22;18496;52.042;6.812;2022-11-20T03:32:39;0.30;99.90
31967;DHT22;18496;52.042;6.812;2022-11-20T03:34:42;0.20;99.90
31967;DHT22;18496;52.042;6.812;2022-11-20T03:36:48;0.20;99.90
31967;DHT22;18496;52.042;6.812;2022-11-20T03:38:59;0.20;99.90
31967;DHT22;18496;52.042;6.812;2022-11-20T03:41:12;0.20;99.90
31967;DHT22;18496;52.042;6.812;2022-11-20T03:43:27;0.10;99.90
31967;DHT22;18496;52.042;6.812;2022-11-20T03:45:34;0.10;99.90
31967;DHT22;18496;52.042;6.812;2022-11-20T03:47:43;0.10;99.90
31967;DHT22;18496;52.042;6.812;2022-11-20T03:49:47;0.10;99.90
31967;DHT22;18496;52.042;6.812;2022-11-20T03:51:51;0.00;99.90
31967;DHT22;18496;52.042;6.812;2022-11-20T03:53:57;0.10;99.90
31967;DHT22;18496;52.042;6.812;2022-11-20T03:56:01;0.10;99.90
31967;DHT22;18496;52.042;6.812;2022-11-20T03:58:07;0.00;99.90
31967;DHT22;18496;52.042;6.812;2022-11-20T04:00:17;0.00;99.90
31967;DHT22;18496;52.042;6.812;2022-11-20T04:02:20;0.00;99.90
31967;DHT22;18496;52.042;6.812;2022-11-20T04:04:24;0.00;99.90
31967;DHT22;18496;52.042;6.812;2022-11-20T04:06:30;0.00;99.90
31967;DHT22;18496;52.042;6.812;2022-11-20T04:08:34;0.00;99.90
31967;DHT22;18496;52.042;6.812;2022-11-20T04:10:38;0.00;99.90
31967;DHT22;18496;52.042;6.812;2022-11-20T04:12:42;-0.10;99.90
31967;DHT22;18496;52.042;6.812;2022-11-20T04:14:45;-0.10;99.90
31967;DHT22;18496;52.042;6.812;2022-11-20T04:16:49;-0.10;99.90
31967;DHT22;18496;52.042;6.812;2022-11-20T04:18:53;-0.10;99.90
31967;DHT22;18496;52.042;6.812;2022-11-20T04:20:58;-0.20;99.90
31967;DHT22;18496;52.042;6.812;2022-11-20T04:23:01;-0.20;99.90
31967;DHT22;18496;52.042;6.812;2022-11-20T04:25:05;-0.20;99.90
31967;DHT22;18496;52.042;6.812;2022-11-20T04:27:09;-0.10;99.90
31967;DHT22;18496;52.042;6.812;2022-11-20T04:29:13;-0.10;99.90
31967;DHT22;18496;52.042;6.812;2022-11-20T04:31:19;-0.10;99.90
31967;DHT22;18496;52.042;6.812;2022-11-20T04:33:23;-0.20;99.90
31967;DHT22;18496;52.042;6.812;2022-11-20T04:35:27;-0.20;99.90
31967;DHT22;18496;52.042;6.812;2022-11-20T04:37:30;-0.10;99.90
31967;DHT22;18496;52.042;6.812;2022-11-20T04:39:34;-0.20;99.90
31967;DHT22;18496;52.042;6.812;2022-11-20T04:41:38;-0.20;99.90
31967;DHT22;18496;52.042;6.812;2022-11-20T04:43:46;-0.20;99.90
31967;DHT22;18496;52.042;6.812;2022-11-20T04:45:54;-0.30;99.90
31967;DHT22;18496;52.042;6.812;2022-11-20T04:47:58;-0.30;99.90
31967;DHT22;18496;52.042;6.812;2022-11-20T04:50:02;-0.30;99.90
31967;DHT22;18496;52.042;6.812;2022-11-20T04:52:06;-0.30;99.90
31967;DHT22;18496;52.042;6.812;2022-11-20T04:54:11;-0.30;99.90
31967;DHT22;18496;52.042;6.812;2022-11-20T04:56:15;-0.30;99.90
31967;DHT22;18496;52.042;6.812;2022-11-20T04:58:19;-0.30;99.90
31967;DHT22;18496;52.042;6.812;2022-11-20T05:00:23;-0.30;99.90
31967;DHT22;18496;52.042;6.812;2022-11-20T05:02:27;-0.30;99.90
31967;DHT22;18496;52.042;6.812;2022-11-20T05:04:30;-0.30;99.90
31967;DHT22;18496;52.042;6.812;2022-11-20T05:06:34;-0.30;99.90
31967;DHT22;18496;52.042;6.812;2022-11-20T05:08:38;-0.40;99.90
31967;DHT22;18496;52.042;6.812;2022-11-20T05:10:44;-0.40;99.90
31967;DHT22;18496;52.042;6.812;2022-11-20T05:12:48;-0.40;99.90
31967;DHT22;18496;52.042;6.812;2022-11-20T05:14:51;-0.30;99.90
31967;DHT22;18496;52.042;6.812;2022-11-20T05:16:55;-0.30;99.90
31967;DHT22;18496;52.042;6.812;2022-11-20T05:18:59;-0.30;99.90
31967;DHT22;18496;52.042;6.812;2022-11-20T05:21:03;-0.30;99.90
31967;DHT22;18496;52.042;6.812;2022-11-20T05:23:07;-0.30;99.90
31967;DHT22;18496;52.042;6.812;2022-11-20T05:25:11;-0.30;99.90
31967;DHT22;18496;52.042;6.812;2022-11-20T05:27:15;-0.30;99.90
31967;DHT22;18496;52.042;6.812;2022-11-20T05:29:18;-0.40;99.90
31967;DHT22;18496;52.042;6.812;2022-11-20T05:31:24;-0.40;99.90
31967;DHT22;18496;52.042;6.812;2022-11-20T05:33:28;-0.40;99.90
31967;DHT22;18496;52.042;6.812;2022-11-20T05:35:31;-0.40;99.90
31967;DHT22;18496;52.042;6.812;2022-11-20T05:37:35;-0.40;99.90
31967;DHT22;18496;52.042;6.812;2022-11-20T05:39:39;-0.40;99.90
31967;DHT22;18496;52.042;6.812;2022-11-20T05:41:42;-0.40;99.90
31967;DHT22;18496;52.042;6.812;2022-11-20T05:43:47;-0.50;99.90
31967;DHT22;18496;52.042;6.812;2022-11-20T05:45:54;-0.50;99.90
31967;DHT22;18496;52.042;6.812;2022-11-20T05:48:01;-0.50;99.90
31967;DHT22;18496;52.042;6.812;2022-11-20T05:50:05;-0.50;99.90
31967;DHT22;18496;52.042;6.812;2022-11-20T05:52:09;-0.60;99.90
31967;DHT22;18496;52.042;6.812;2022-11-20T05:54:12;-0.50;99.90
31967;DHT22;18496;52.042;6.812;2022-11-20T05:56:19;-0.60;99.90
31967;DHT22;18496;52.042;6.812;2022-11-20T05:58:22;-0.60;99.90
31967;DHT22;18496;52.042;6.812;2022-11-20T06:00:26;-0.60;99.90
31967;DHT22;18496;52.042;6.812;2022-11-20T06:02:30;-0.60;99.90
31967;DHT22;18496;52.042;6.812;2022-11-20T06:04:33;-0.60;99.90
31967;DHT22;18496;52.042;6.812;2022-11-20T06:06:37;-0.60;99.90
31967;DHT22;18496;52.042;6.812;2022-11-20T06:08:41;-0.60;99.90
31967;DHT22;18496;52.042;6.812;2022-11-20T06:10:44;-0.60;99.90
31967;DHT22;18496;52.042;6.812;2022-11-20T06:12:48;-0.60;99.90
31967;DHT22;18496;52.042;6.812;2022-11-20T06:14:52;-0.60;99.90
31967;DHT22;18496;52.042;6.812;2022-11-20T06:16:55;-0.60;99.90
31967;DHT22;18496;52.042;6.812;2022-11-20T06:18:59;-0.60;99.90
31967;DHT22;18496;52.042;6.812;2022-11-20T06:21:04;-0.60;99.90
31967;DHT22;18496;52.042;6.812;2022-11-20T06:23:09;-0.60;99.90
31967;DHT22;18496;52.042;6.812;2022-11-20T06:25:13;-0.60;99.90
31967;DHT22;18496;52.042;6.812;2022-11-20T06:27:17;-0.50;99.90
31967;DHT22;18496;52.042;6.812;2022-11-20T06:29:20;-0.60;99.90
31967;DHT22;18496;52.042;6.812;2022-11-20T06:31:25;-0.60;99.90
31967;DHT22;18496;52.042;6.812;2022-11-20T06:33:29;-0.60;99.90
31967;DHT22;18496;52.042;6.812;2022-11-20T06:35:33;-0.60;99.90
31967;DHT22;18496;52.042;6.812;2022-11-20T06:37:36;-0.60;99.90
31967;DHT22;18496;52.042;6.812;2022-11-20T06:39:40;-0.70;99.90
31967;DHT22;18496;52.042;6.812;2022-11-20T06:41:44;-0.60;99.90
31967;DHT22;18496;52.042;6.812;2022-11-20T06:43:48;-0.70;99.90
31967;DHT22;18496;52.042;6.812;2022-11-20T06:45:56;-0.70;99.90
31967;DHT22;18496;52.042;6.812;2022-11-20T06:48:00;-0.70;99.90
31967;DHT22;18496;52.042;6.812;2022-11-20T06:50:04;-0.70;99.90
31967;DHT22;18496;52.042;6.812;2022-11-20T06:52:07;-0.60;99.90
31967;DHT22;18496;52.042;6.812;2022-11-20T06:54:11;-0.60;99.90
31967;DHT22;18496;52.042;6.812;2022-11-20T06:56:15;-0.70;99.90
31967;DHT22;18496;52.042;6.812;2022-11-20T06:58:19;-0.70;99.90
31967;DHT22;18496;52.042;6.812;2022-11-20T07:00:22;-0.70;99.90
31967;DHT22;18496;52.042;6.812;2022-11-20T07:02:26;-0.70;99.90
31967;DHT22;18496;52.042;6.812;2022-11-20T07:04:30;-0.70;99.90
31967;DHT22;18496;52.042;6.812;2022-11-20T07:06:33;-0.70;99.90
31967;DHT22;18496;52.042;6.812;2022-11-20T07:08:37;-0.70;99.90
31967;DHT22;18496;52.042;6.812;2022-11-20T07:10:41;-0.60;99.90
31967;DHT22;18496;52.042;6.812;2022-11-20T07:12:49;-0.60;99.90
31967;DHT22;18496;52.042;6.812;2022-11-20T07:14:54;-0.60;99.90
31967;DHT22;18496;52.042;6.812;2022-11-20T07:16:57;-0.70;99.90
31967;DHT22;18496;52.042;6.812;2022-11-20T07:19:01;-0.70;99.90
31967;DHT22;18496;52.042;6.812;2022-11-20T07:21:07;-0.70;99.90
31967;DHT22;18496;52.042;6.812;2022-11-20T07:23:11;-0.70;99.90
31967;DHT22;18496;52.042;6.812;2022-11-20T07:25:15;-0.70;99.90
31967;DHT22;18496;52.042;6.812;2022-11-20T07:27:18;-0.70;99.90
31967;DHT22;18496;52.042;6.812;2022-11-20T07:29:22;-0.60;99.90
31967;DHT22;18496;52.042;6.812;2022-11-20T07:31:25;-0.60;99.90
31967;DHT22;18496;52.042;6.812;2022-11-20T07:33:29;-0.60;99.90
31967;DHT22;18496;52.042;6.812;2022-11-20T07:35:33;-0.50;99.90
31967;DHT22;18496;52.042;6.812;2022-11-20T07:37:37;-0.50;99.90
31967;DHT22;18496;52.042;6.812;2022-11-20T07:39:41;-0.50;99.90
31967;DHT22;18496;52.042;6.812;2022-11-20T07:41:44;-0.50;99.90
31967;DHT22;18496;52.042;6.812;2022-11-20T07:43:48;-0.50;99.90
31967;DHT22;18496;52.042;6.812;2022-11-20T07:45:51;-0.50;99.90
31967;DHT22;18496;52.042;6.812;2022-11-20T07:47:55;-0.60;99.90
31967;DHT22;18496;52.042;6.812;2022-11-20T07:49:59;-0.60;99.90
31967;DHT22;18496;52.042;6.812;2022-11-20T07:52:02;-0.70;99.90
31967;DHT22;18496;52.042;6.812;2022-11-20T07:54:06;-0.70;99.90
31967;DHT22;18496;52.042;6.812;2022-11-20T07:56:10;-0.70;99.90
31967;DHT22;18496;52.042;6.812;2022-11-20T07:58:13;-0.70;99.90
31967;DHT22;18496;52.042;6.812;2022-11-20T08:00:17;-0.60;99.90
31967;DHT22;18496;52.042;6.812;2022-11-20T08:02:21;-0.50;99.90
31967;DHT22;18496;52.042;6.812;2022-11-20T08:04:24;-0.50;99.90
31967;DHT22;18496;52.042;6.812;2022-11-20T08:06:28;-0.50;99.90
31967;DHT22;18496;52.042;6.812;2022-11-20T08:08:32;-0.50;99.90
31967;DHT22;18496;52.042;6.812;2022-11-20T08:10:36;-0.40;99.90
31967;DHT22;18496;52.042;6.812;2022-11-20T08:12:47;-0.40;99.90
31967;DHT22;18496;52.042;6.812;2022-11-20T08:15:10;-0.30;99.90
31967;DHT22;18496;52.042;6.812;2022-11-20T08:17:14;-0.20;99.90
31967;DHT22;18496;52.042;6.812;2022-11-20T08:19:18;-0.10;99.90
31967;DHT22;18496;52.042;6.812;2022-11-20T08:21:22;-0.10;99.90
31967;DHT22;18496;52.042;6.812;2022-11-20T08:23:25;-0.10;99.90
31967;DHT22;18496;52.042;6.812;2022-11-20T08:25:29;0.00;99.90
31967;DHT22;18496;52.042;6.812;2022-11-20T08:27:33;0.00;99.90
31967;DHT22;18496;52.042;6.812;2022-11-20T08:29:37;0.00;99.90
31967;DHT22;18496;52.042;6.812;2022-11-20T08:31:40;0.10;99.90
31967;DHT22;18496;52.042;6.812;2022-11-20T08:33:44;0.10;99.90
31967;DHT22;18496;52.042;6.812;2022-11-20T08:35:48;0.10;99.90
31967;DHT22;18496;52.042;6.812;2022-11-20T08:37:51;0.10;99.90
31967;DHT22;18496;52.042;6.812;2022-11-20T08:39:55;0.20;99.90
31967;DHT22;18496;52.042;6.812;2022-11-20T08:42:00;0.20;99.90
31967;DHT22;18496;52.042;6.812;2022-11-20T08:44:07;0.30;99.90
31967;DHT22;18496;52.042;6.812;2022-11-20T08:46:11;0.30;99.90
31967;DHT22;18496;52.042;6.812;2022-11-20T08:48:15;0.30;99.90
31967;DHT22;18496;52.042;6.812;2022-11-20T08:50:21;0.40;99.90
31967;DHT22;18496;52.042;6.812;2022-11-20T08:52:25;0.40;99.90
31967;DHT22;18496;52.042;6.812;2022-11-20T08:54:29;0.40;99.90
31967;DHT22;18496;52.042;6.812;2022-11-20T08:56:34;0.50;99.90
31967;DHT22;18496;52.042;6.812;2022-11-20T08:58:38;0.50;99.90
31967;DHT22;18496;52.042;6.812;2022-11-20T09:00:42;0.50;99.90
31967;DHT22;18496;52.042;6.812;2022-11-20T09:02:48;0.60;99.90
31967;DHT22;18496;52.042;6.812;2022-11-20T09:04:52;0.60;99.90
31967;DHT22;18496;52.042;6.812;2022-11-20T09:06:56;0.70;99.90
31967;DHT22;18496;52.042;6.812;2022-11-20T09:09:00;0.70;99.90
31967;DHT22;18496;52.042;6.812;2022-11-20T09:11:04;0.70;99.90
31967;DHT22;18496;52.042;6.812;2022-11-20T09:13:08;0.70;99.90
31967;DHT22;18496;52.042;6.812;2022-11-20T09:15:12;0.80;99.90
31967;DHT22;18496;52.042;6.812;2022-11-20T09:17:15;0.80;99.90
31967;DHT22;18496;52.042;6.812;2022-11-20T09:19:19;0.70;99.90
31967;DHT22;18496;52.042;6.812;2022-11-20T09:21:25;0.80;99.90
31967;DHT22;18496;52.042;6.812;2022-11-20T09:23:34;0.80;99.90
31967;DHT22;18496;52.042;6.812;2022-11-20T09:25:38;0.90;99.90
31967;DHT22;18496;52.042;6.812;2022-11-20T09:27:42;0.90;99.90
31967;DHT22;18496;52.042;6.812;2022-11-20T09:29:47;1.00;99.90
31967;DHT22;18496;52.042;6.812;2022-11-20T09:31:51;1.00;99.90
31967;DHT22;18496;52.042;6.812;2022-11-20T09:33:54;1.10;99.90
31967;DHT22;18496;52.042;6.812;2022-11-20T09:35:58;1.10;99.90
31967;DHT22;18496;52.042;6.812;2022-11-20T09:38:06;1.20;99.90
31967;DHT22;18496;52.042;6.812;2022-11-20T09:42:32;1.20;99.90
31967;DHT22;18496;52.042;6.812;2022-11-20T09:47:02;1.30;99.90
31967;DHT22;18496;52.042;6.812;2022-11-20T09:49:31;1.40;99.90
31967;DHT22;18496;52.042;6.812;2022-11-20T09:54:02;1.50;99.90
31967;DHT22;18496;52.042;6.812;2022-11-20T09:56:10;1.60;99.90
31967;DHT22;18496;52.042;6.812;2022-11-20T09:58:41;1.60;99.90
31967;DHT22;18496;52.042;6.812;2022-11-20T10:00:46;1.70;99.90
31967;DHT22;18496;52.042;6.812;2022-11-20T10:03:05;1.70;99.90
31967;DHT22;18496;52.042;6.812;2022-11-20T10:07:24;1.90;99.90
31967;DHT22;18496;52.042;6.812;2022-11-20T10:09:34;1.90;99.90
31967;DHT22;18496;52.042;6.812;2022-11-20T10:11:51;2.00;99.90
31967;DHT22;18496;52.042;6.812;2022-11-20T10:19:04;2.20;99.90
31967;DHT22;18496;52.042;6.812;2022-11-20T10:25:47;2.40;99.90
31967;DHT22;18496;52.042;6.812;2022-11-20T10:28:07;2.40;99.90
31967;DHT22;18496;52.042;6.812;2022-11-20T10:30:18;2.50;99.90
31967;DHT22;18496;52.042;6.812;2022-11-20T10:32:31;2.50;99.90
31967;DHT22;18496;52.042;6.812;2022-11-20T10:34:49;2.60;99.90
31967;DHT22;18496;52.042;6.812;2022-11-20T10:37:16;2.70;99.90
31967;DHT22;18496;52.042;6.812;2022-11-20T10:39:22;2.70;99.90
31967;DHT22;18496;52.042;6.812;2022-11-20T10:41:32;2.80;99.90
31967;DHT22;18496;52.042;6.812;2022-11-20T10:43:38;2.90;99.90
31967;DHT22;18496;52.042;6.812;2022-11-20T10:45:58;3.00;99.90
31967;DHT22;18496;52.042;6.812;2022-11-20T10:50:14;3.20;99.90
31967;DHT22;18496;52.042;6.812;2022-11-20T10:52:46;3.20;99.90
31967;DHT22;18496;52.042;6.812;2022-11-20T10:59:50;3.50;99.90
31967;DHT22;18496;52.042;6.812;2022-11-20T11:01:56;3.50;99.90
31967;DHT22;18496;52.042;6.812;2022-11-20T11:04:00;3.50;99.90
31967;DHT22;18496;52.042;6.812;2022-11-20T11:08:18;3.60;99.90
31967;DHT22;18496;52.042;6.812;2022-11-20T11:11:07;3.60;99.90
31967;DHT22;18496;52.042;6.812;2022-11-20T11:13:05;3.70;99.90
31967;DHT22;18496;52.042;6.812;2022-11-20T11:15:39;3.70;99.90
31967;DHT22;18496;52.042;6.812;2022-11-20T11:17:47;3.70;99.90
31967;DHT22;18496;52.042;6.812;2022-11-20T11:20:18;3.70;99.90
31967;DHT22;18496;52.042;6.812;2022-11-20T11:22:21;3.80;99.90
31967;DHT22;18496;52.042;6.812;2022-11-20T11:24:29;3.70;99.90
31967;DHT22;18496;52.042;6.812;2022-11-20T11:26:33;3.80;99.90
31967;DHT22;18496;52.042;6.812;2022-11-20T11:28:38;3.80;99.90
31967;DHT22;18496;52.042;6.812;2022-11-20T11:30:44;3.80;99.90
31967;DHT22;18496;52.042;6.812;2022-11-20T11:32:48;3.80;99.90
31967;DHT22;18496;52.042;6.812;2022-11-20T11:35:03;3.90;99.90
31967;DHT22;18496;52.042;6.812;2022-11-20T11:37:18;3.90;99.90
31967;DHT22;18496;52.042;6.812;2022-11-20T11:39:23;3.90;99.90
31967;DHT22;18496;52.042;6.812;2022-11-20T11:41:33;4.00;99.90
31967;DHT22;18496;52.042;6.812;2022-11-20T11:43:51;4.00;99.90
31967;DHT22;18496;52.042;6.812;2022-11-20T11:46:25;4.00;99.90
31967;DHT22;18496;52.042;6.812;2022-11-20T11:48:30;4.10;99.90
31967;DHT22;18496;52.042;6.812;2022-11-20T11:50:34;4.10;99.90
31967;DHT22;18496;52.042;6.812;2022-11-20T11:53:09;4.10;99.90
31967;DHT22;18496;52.042;6.812;2022-11-20T11:57:54;4.10;99.90
31967;DHT22;18496;52.042;6.812;2022-11-20T12:00:16;4.10;99.90
31967;DHT22;18496;52.042;6.812;2022-11-20T12:02:32;4.10;99.90
31967;DHT22;18496;52.042;6.812;2022-11-20T12:07:15;4.10;99.90
31967;DHT22;18496;52.042;6.812;2022-11-20T12:09:24;4.10;99.90
31967;DHT22;18496;52.042;6.812;2022-11-20T12:13:55;4.10;99.90
31967;DHT22;18496;52.042;6.812;2022-11-20T12:16:03;4.10;99.90
31967;DHT22;18496;52.042;6.812;2022-11-20T12:18:15;4.00;99.90
31967;DHT22;18496;52.042;6.812;2022-11-20T12:20:21;4.00;99.90
31967;DHT22;18496;52.042;6.812;2022-11-20T12:23:17;4.10;99.90
31967;DHT22;18496;52.042;6.812;2022-11-20T12:25:16;4.10;99.90
31967;DHT22;18496;52.042;6.812;2022-11-20T12:49:49;4.30;99.90
31967;DHT22;18496;52.042;6.812;2022-11-20T12:52:16;4.30;99.90
31967;DHT22;18496;52.042;6.812;2022-11-20T12:54:46;4.30;99.90
31967;DHT22;18496;52.042;6.812;2022-11-20T12:57:21;4.30;99.90
31967;DHT22;18496;52.042;6.812;2022-11-20T13:06:40;4.30;99.90
31967;DHT22;18496;52.042;6.812;2022-11-20T13:08:53;4.30;99.90
31967;DHT22;18496;52.042;6.812;2022-11-20T13:15:53;4.40;99.90
31967;DHT22;18496;52.042;6.812;2022-11-20T13:18:00;4.40;99.90
31967;DHT22;18496;52.042;6.812;2022-11-20T13:20:06;4.40;99.90
31967;DHT22;18496;52.042;6.812;2022-11-20T13:22:27;4.40;99.90
31967;DHT22;18496;52.042;6.812;2022-11-20T13:24:32;4.40;99.90
31967;DHT22;18496;52.042;6.812;2022-11-20T13:26:35;4.40;99.90
31967;DHT22;18496;52.042;6.812;2022-11-20T13:28:39;4.50;99.90
31967;DHT22;18496;52.042;6.812;2022-11-20T13:30:52;4.50;99.90
31967;DHT22;18496;52.042;6.812;2022-11-20T13:33:06;4.50;99.90
31967;DHT22;18496;52.042;6.812;2022-11-20T13:35:11;4.50;99.90
31967;DHT22;18496;52.042;6.812;2022-11-20T13:37:34;4.50;99.90
31967;DHT22;18496;52.042;6.812;2022-11-20T13:39:38;4.50;99.90
31967;DHT22;18496;52.042;6.812;2022-11-20T13:41:41;4.50;99.90
31967;DHT22;18496;52.042;6.812;2022-11-20T13:43:47;4.50;99.90
31967;DHT22;18496;52.042;6.812;2022-11-20T13:48:05;4.40;99.90
31967;DHT22;18496;52.042;6.812;2022-11-20T13:50:44;4.40;99.90
31967;DHT22;18496;52.042;6.812;2022-11-20T13:55:16;4.40;99.90
31967;DHT22;18496;52.042;6.812;2022-11-20T13:57:56;4.40;99.90
31967;DHT22;18496;52.042;6.812;2022-11-20T14:02:19;4.40;99.90
31967;DHT22;18496;52.042;6.812;2022-11-20T14:04:32;4.40;99.90
31967;DHT22;18496;52.042;6.812;2022-11-20T14:06:44;4.40;99.90
31967;DHT22;18496;52.042;6.812;2022-11-20T14:08:49;4.50;99.90
31967;DHT22;18496;52.042;6.812;2022-11-20T14:11:24;4.50;99.90
31967;DHT22;18496;52.042;6.812;2022-11-20T14:13:27;4.50;99.90
31967;DHT22;18496;52.042;6.812;2022-11-20T14:15:34;4.50;99.90
31967;DHT22;18496;52.042;6.812;2022-11-20T14:17:38;4.50;99.90
31967;DHT22;18496;52.042;6.812;2022-11-20T14:19:43;4.50;99.90
31967;DHT22;18496;52.042;6.812;2022-11-20T14:21:48;4.50;99.90
31967;DHT22;18496;52.042;6.812;2022-11-20T14:23:54;4.60;99.90
31967;DHT22;18496;52.042;6.812;2022-11-20T14:26:17;4.60;99.90
31967;DHT22;18496;52.042;6.812;2022-11-20T14:28:29;4.60;99.90
31967;DHT22;18496;52.042;6.812;2022-11-20T14:30:44;4.60;99.90
31967;DHT22;18496;52.042;6.812;2022-11-20T14:32:49;4.60;99.90
31967;DHT22;18496;52.042;6.812;2022-11-20T14:34:54;4.60;99.90
31967;DHT22;18496;52.042;6.812;2022-11-20T14:37:03;4.60;99.90
31967;DHT22;18496;52.042;6.812;2022-11-20T14:39:11;4.60;99.90
31967;DHT22;18496;52.042;6.812;2022-11-20T14:41:24;4.70;99.90
31967;DHT22;18496;52.042;6.812;2022-11-20T14:43:28;4.70;99.90
31967;DHT22;18496;52.042;6.812;2022-11-20T14:45:32;4.60;99.90
31967;DHT22;18496;52.042;6.812;2022-11-20T14:47:36;4.70;99.90
31967;DHT22;18496;52.042;6.812;2022-11-20T14:49:40;4.60;99.90
31967;DHT22;18496;52.042;6.812;2022-11-20T14:51:44;4.60;99.90
31967;DHT22;18496;52.042;6.812;2022-11-20T14:53:49;4.60;99.90